Time;durP1;ratioP1;P1;durP2;ratioP2;P2;SDS_P1;SDS_P2;PMS_P1;PMS_P2;Temp;Humidity;BMP_temperature;BMP_pressure;BME280_temperature;BME280_humidity;BME280_pressure;Samples;Min_cycle;Max_cycle;Signal;HPM_P1;HPM_P2
2024/04/07 00:02:24;;;;;;;0.20;0.20;;;15.60;1.00;;;;;;5086690;28;20407;-81
2024/04/07 00:04:50;;;;;;;0.10;0.10;;;15.70;1.00;;;;;;5089269;28;20608;-80
2024/04/07 00:07:16;;;;;;;0.20;0.20;;;15.60;1.00;;;;;;5111926;28;20059;-80
2024/04/07 00:09:42;;;;;;;0.20;0.20;;;15.70;1.00;;;;;;5092369;28;20044;-81
2024/04/07 00:12:10;;;;;;;0.20;0.20;;;15.60;1.00;;;;;;5081652;28;20047;-80
2024/04/07 00:14:37;;;;;;;0.20;0.20;;;15.60;1.00;;;;;;5089964;28;20041;-80
2024/04/07 00:17:03;;;;;;;0.20;0.20;;;15.60;1.00;;;;;;5078532;28;20483;-80
2024/04/07 00:19:29;;;;;;;0.10;0.10;;;15.60;1.00;;;;;;5122475;27;20545;-80
2024/04/07 00:21:55;;;;;;;0.10;0.10;;;15.60;1.00;;;;;;5079302;28;20036;-80
2024/04/07 00:24:20;;;;;;;0.10;0.10;;;15.60;1.00;;;;;;5086141;28;20050;-80
2024/04/07 00:26:46;;;;;;;0.10;0.10;;;15.60;1.00;;;;;;5087284;28;20038;-80
2024/04/07 00:29:12;;;;;;;0.10;0.10;;;15.60;1.00;;;;;;5112610;28;20122;-81
2024/04/07 00:31:38;;;;;;;0.10;0.10;;;15.60;1.00;;;;;;5109000;28;20109;-80
2024/04/07 00:34:03;;;;;;;0.10;0.10;;;15.60;1.00;;;;;;5109623;28;20497;-80
2024/04/07 00:36:29;;;;;;;0.20;0.20;;;15.50;1.00;;;;;;5111342;28;20071;-80
2024/04/07 00:38:55;;;;;;;0.17;0.17;;;15.60;1.00;;;;;;5095377;28;20063;-81
2024/04/07 00:41:21;;;;;;;0.10;0.10;;;15.60;1.00;;;;;;5070724;28;20492;-80
2024/04/07 00:43:46;;;;;;;0.20;0.20;;;15.70;1.00;;;;;;5126265;27;20061;-80
2024/04/07 00:46:12;;;;;;;0.10;0.10;;;15.70;1.00;;;;;;5111352;28;20122;-80
2024/04/07 00:48:38;;;;;;;0.10;0.10;;;15.60;1.00;;;;;;5101118;28;20044;-80
2024/04/07 00:51:04;;;;;;;0.10;0.10;;;15.70;1.00;;;;;;5076715;28;20044;-80
2024/04/07 00:53:31;;;;;;;0.10;0.10;;;15.70;1.00;;;;;;5083939;28;20551;-80
2024/04/07 00:55:59;;;;;;;0.10;0.10;;;15.70;1.00;;;;;;5074970;28;20075;-80
2024/04/07 00:58:25;;;;;;;0.15;0.15;;;15.80;1.00;;;;;;5091237;28;20401;-78
2024/04/07 01:00:51;;;;;;;0.10;0.10;;;15.90;1.00;;;;;;5079716;28;20071;-80
2024/04/07 01:03:16;;;;;;;0.10;0.10;;;16.10;1.00;;;;;;5073149;28;20040;-83
2024/04/07 01:05:47;;;;;;;0.20;0.20;;;16.20;1.00;;;;;;5072939;28;20040;-80
2024/04/07 01:08:14;;;;;;;0.20;0.20;;;16.40;1.00;;;;;;5085699;28;20047;-79
2024/04/07 01:10:41;;;;;;;0.10;0.10;;;16.50;1.00;;;;;;5078805;28;20064;-79
2024/04/07 01:13:08;;;;;;;0.20;0.20;;;16.60;1.00;;;;;;5076046;28;20068;-80
2024/04/07 01:15:37;;;;;;;0.20;0.20;;;16.80;1.00;;;;;;5090135;28;20051;-81
2024/04/07 01:18:06;;;;;;;0.15;0.15;;;16.80;1.00;;;;;;5078760;28;20048;-80
2024/04/07 01:20:33;;;;;;;0.10;0.10;;;16.90;1.00;;;;;;5085233;28;20047;-81
2024/04/07 01:22:59;;;;;;;0.20;0.20;;;17.00;1.00;;;;;;5072669;28;20547;-80
2024/04/07 01:25:25;;;;;;;0.10;0.10;;;17.00;1.00;;;;;;5085465;28;20120;-81
2024/04/07 01:28:01;;;;;;;0.20;0.20;;;17.10;1.00;;;;;;5087341;28;20086;-80
2024/04/07 01:30:27;;;;;;;0.13;0.13;;;17.10;1.00;;;;;;5089718;28;20509;-79
2024/04/07 01:32:53;;;;;;;0.10;0.10;;;17.10;1.00;;;;;;5076889;28;20364;-79
2024/04/07 01:35:19;;;;;;;0.20;0.20;;;17.10;1.00;;;;;;5071928;28;20048;-80
2024/04/07 01:37:45;;;;;;;0.20;0.20;;;17.20;1.00;;;;;;5082658;28;20036;-79
2024/04/07 01:40:11;;;;;;;0.10;0.10;;;17.20;1.00;;;;;;5068498;28;20056;-79
2024/04/07 01:42:38;;;;;;;0.20;0.20;;;17.20;1.00;;;;;;5074834;28;20096;-80
2024/04/07 01:45:08;;;;;;;0.20;0.20;;;17.10;1.00;;;;;;5072434;28;20044;-80
2024/04/07 01:47:35;;;;;;;0.20;0.20;;;17.10;1.00;;;;;;5069267;28;20383;-79
2024/04/07 01:50:03;;;;;;;0.20;0.20;;;17.10;1.00;;;;;;5071134;28;20103;-79
2024/04/07 01:52:28;;;;;;;0.10;0.10;;;17.10;1.00;;;;;;5078271;28;20119;-80
2024/04/07 01:54:54;;;;;;;0.20;0.20;;;17.10;1.00;;;;;;5074195;28;20174;-80
2024/04/07 01:57:20;;;;;;;0.20;0.20;;;17.10;1.00;;;;;;5087337;28;20075;-81
2024/04/07 01:59:45;;;;;;;0.20;0.20;;;17.10;1.00;;;;;;5082743;28;20045;-79
2024/04/07 02:02:11;;;;;;;0.20;0.20;;;17.00;1.00;;;;;;5075084;28;20048;-80
2024/04/07 02:04:37;;;;;;;0.20;0.20;;;16.90;1.00;;;;;;5087661;28;20068;-80
2024/04/07 02:07:03;;;;;;;0.20;0.20;;;16.90;1.00;;;;;;5078887;28;20040;-81
2024/04/07 02:09:29;;;;;;;0.20;0.20;;;16.80;1.00;;;;;;5067975;28;20098;-79
2024/04/07 02:11:58;;;;;;;0.10;0.10;;;16.60;1.00;;;;;;5091350;28;20056;-79
2024/04/07 02:14:23;;;;;;;0.10;0.10;;;16.50;1.00;;;;;;5119899;27;20036;-79
2024/04/07 02:16:49;;;;;;;0.20;0.20;;;16.40;1.00;;;;;;5077984;28;20554;-80
2024/04/07 02:19:16;;;;;;;0.20;0.20;;;16.20;1.00;;;;;;5091545;28;20041;-80
2024/04/07 02:21:42;;;;;;;0.20;0.20;;;16.20;1.00;;;;;;5072138;28;20051;-80
2024/04/07 02:24:07;;;;;;;0.20;0.20;;;16.00;1.00;;;;;;5070336;28;20044;-80
2024/04/07 02:26:33;;;;;;;0.10;0.10;;;16.00;1.00;;;;;;5082327;28;20383;-79
2024/04/07 02:28:59;;;;;;;0.20;0.20;;;15.90;1.00;;;;;;5071564;28;20114;-80
2024/04/07 02:31:25;;;;;;;0.10;0.10;;;15.80;1.00;;;;;;5068526;28;20041;-79
2024/04/07 02:33:51;;;;;;;0.20;0.20;;;15.80;1.00;;;;;;5068173;28;20508;-79
2024/04/07 02:36:16;;;;;;;0.20;0.20;;;15.70;1.00;;;;;;5084961;28;20072;-79
2024/04/07 02:38:43;;;;;;;0.20;0.20;;;15.60;1.00;;;;;;5067645;28;20052;-79
2024/04/07 02:41:08;;;;;;;0.13;0.13;;;15.60;1.00;;;;;;5086314;28;20140;-80
2024/04/07 02:43:34;;;;;;;0.20;0.20;;;15.60;1.00;;;;;;5084336;28;20584;-80
2024/04/07 02:48:45;;;;;;;0.20;0.20;;;15.50;1.00;;;;;;5084603;28;20052;-79
2024/04/07 02:51:11;;;;;;;0.17;0.17;;;15.50;1.00;;;;;;5072369;28;20043;-79
2024/04/07 02:53:38;;;;;;;0.17;0.17;;;15.40;1.00;;;;;;5068820;28;20078;-81
2024/04/07 02:56:04;;;;;;;0.10;0.10;;;15.40;1.00;;;;;;5071190;28;20574;-80
2024/04/07 02:58:30;;;;;;;0.20;0.20;;;15.40;1.00;;;;;;5072452;28;20377;-82
2024/04/07 03:01:06;;;;;;;0.20;0.20;;;15.30;1.00;;;;;;5070990;28;20070;-77
2024/04/07 03:03:32;;;;;;;0.20;0.20;;;15.30;1.00;;;;;;5082711;28;20040;-81
2024/04/07 03:05:58;;;;;;;0.20;0.20;;;15.30;1.00;;;;;;5097031;28;20052;-79
2024/04/07 03:08:24;;;;;;;0.10;0.10;;;15.30;1.00;;;;;;5070451;28;20047;-80
2024/04/07 03:11:00;;;;;;;0.20;0.20;;;15.20;1.00;;;;;;5087232;28;20044;-79
2024/04/07 03:13:26;;;;;;;0.15;0.15;;;15.20;1.00;;;;;;5066979;28;20412;-80
2024/04/07 03:15:52;;;;;;;0.20;0.20;;;15.20;1.00;;;;;;5067370;28;20044;-79
2024/04/07 03:18:19;;;;;;;0.10;0.10;;;15.20;1.00;;;;;;5068580;28;20098;-82
2024/04/07 03:20:45;;;;;;;0.10;0.10;;;15.20;1.00;;;;;;5071162;28;20043;-79
2024/04/07 03:23:11;;;;;;;0.20;0.20;;;15.20;1.00;;;;;;5088587;28;20488;-79
2024/04/07 03:25:37;;;;;;;0.15;0.15;;;15.20;1.00;;;;;;5088543;28;20098;-80
2024/04/07 03:28:03;;;;;;;0.10;0.10;;;15.20;1.00;;;;;;5087111;28;20032;-80
2024/04/07 03:30:29;;;;;;;0.20;0.20;;;15.20;1.00;;;;;;5074408;28;20201;-79
2024/04/07 03:32:55;;;;;;;0.20;0.20;;;15.10;1.00;;;;;;5075354;28;20071;-78
2024/04/07 03:35:20;;;;;;;0.20;0.20;;;15.10;1.00;;;;;;5084233;28;20055;-79
2024/04/07 03:37:46;;;;;;;0.10;0.10;;;15.00;1.00;;;;;;5079703;28;20070;-78
2024/04/07 03:40:12;;;;;;;0.10;0.10;;;15.00;1.00;;;;;;5086246;28;20040;-78
2024/04/07 03:42:38;;;;;;;0.10;0.10;;;14.90;1.00;;;;;;5074722;28;20396;-80
2024/04/07 03:45:04;;;;;;;0.15;0.15;;;14.90;1.00;;;;;;5087356;28;20052;-80
2024/04/07 03:47:30;;;;;;;0.10;0.10;;;14.80;1.00;;;;;;5077201;28;20128;-78
2024/04/07 03:49:55;;;;;;;0.10;0.10;;;14.70;1.00;;;;;;5083763;28;20119;-80
2024/04/07 03:52:21;;;;;;;0.10;0.10;;;14.60;1.00;;;;;;5075048;28;20131;-80
2024/04/07 03:54:48;;;;;;;0.10;0.10;;;14.60;1.00;;;;;;5086921;28;20055;-81
2024/04/07 03:57:14;;;;;;;0.13;0.13;;;14.50;1.00;;;;;;5086444;28;20105;-80
2024/04/07 03:59:39;;;;;;;0.20;0.20;;;14.50;1.00;;;;;;5088427;28;20387;-80
2024/04/07 04:02:05;;;;;;;0.20;0.20;;;14.40;1.00;;;;;;5080431;28;20441;-80
2024/04/07 04:04:31;;;;;;;0.10;0.10;;;14.40;1.00;;;;;;5103582;28;20055;-80
2024/04/07 04:06:57;;;;;;;0.10;0.10;;;14.40;1.00;;;;;;5067149;28;20044;-81
2024/04/07 04:09:22;;;;;;;0.10;0.10;;;14.30;1.00;;;;;;5076474;28;20451;-81
2024/04/07 04:11:48;;;;;;;0.20;0.20;;;14.30;1.00;;;;;;5079704;28;20048;-79
2024/04/07 04:14:13;;;;;;;0.20;0.20;;;14.20;1.00;;;;;;5067191;28;20052;-80
2024/04/07 04:16:41;;;;;;;0.10;0.10;;;14.30;1.00;;;;;;5066567;28;20045;-80
2024/04/07 04:19:07;;;;;;;0.10;0.10;;;14.10;1.00;;;;;;5086095;28;20036;-80
2024/04/07 04:21:33;;;;;;;0.10;0.10;;;14.20;1.00;;;;;;5091589;28;20359;-80
2024/04/07 04:23:59;;;;;;;0.20;0.20;;;14.20;1.00;;;;;;5089084;28;20082;-80
2024/04/07 04:26:26;;;;;;;0.20;0.20;;;14.20;1.00;;;;;;5088881;28;20123;-81
2024/04/07 04:28:53;;;;;;;0.20;0.20;;;14.10;1.00;;;;;;5089686;28;20048;-80
2024/04/07 04:31:19;;;;;;;0.20;0.20;;;14.10;1.00;;;;;;5090912;28;20105;-80
2024/04/07 04:33:45;;;;;;;0.20;0.20;;;14.10;1.00;;;;;;5073281;28;20123;-79
2024/04/07 04:36:14;;;;;;;0.10;0.10;;;14.10;1.00;;;;;;5082947;28;20131;-80
2024/04/07 04:38:41;;;;;;;0.10;0.10;;;14.10;1.00;;;;;;5097776;28;20044;-80
2024/04/07 04:41:06;;;;;;;0.10;0.10;;;14.10;1.00;;;;;;5098517;28;20063;-80
2024/04/07 04:43:32;;;;;;;0.10;0.10;;;14.10;1.00;;;;;;5109820;28;20043;-80
2024/04/07 04:46:03;;;;;;;0.10;0.10;;;14.00;1.00;;;;;;5111781;28;20048;-80
2024/04/07 04:48:30;;;;;;;0.20;0.20;;;14.00;1.00;;;;;;5104535;28;20039;-81
2024/04/07 04:50:56;;;;;;;0.10;0.10;;;14.00;1.00;;;;;;5077714;28;20052;-80
2024/04/07 04:53:21;;;;;;;0.10;0.10;;;14.00;1.00;;;;;;5088815;28;20058;-80
2024/04/07 04:55:47;;;;;;;0.10;0.10;;;14.00;1.00;;;;;;5085676;28;20129;-81
2024/04/07 04:58:13;;;;;;;0.10;0.10;;;14.00;1.00;;;;;;5082284;28;20115;-79
2024/04/07 05:00:38;;;;;;;0.10;0.10;;;13.90;1.00;;;;;;5091855;28;20078;-80
2024/04/07 05:03:04;;;;;;;0.10;0.10;;;13.80;1.00;;;;;;5077943;28;20504;-82
2024/04/07 05:05:30;;;;;;;0.20;0.20;;;13.90;1.00;;;;;;5076309;28;20043;-81
2024/04/07 05:07:55;;;;;;;0.20;0.20;;;13.80;1.00;;;;;;5082562;28;20031;-82
2024/04/07 05:10:21;;;;;;;0.20;0.20;;;13.90;1.00;;;;;;5078883;28;20043;-85
2024/04/07 05:12:47;;;;;;;0.20;0.20;;;13.90;1.00;;;;;;5079615;28;20416;-83
2024/04/07 05:15:12;;;;;;;0.10;0.10;;;13.90;1.00;;;;;;5088217;28;20032;-83
2024/04/07 05:17:38;;;;;;;0.20;0.20;;;13.90;1.00;;;;;;5071886;28;20105;-83
2024/04/07 05:20:04;;;;;;;0.10;0.10;;;13.80;1.00;;;;;;5082408;28;20144;-83
2024/04/07 05:22:30;;;;;;;0.10;0.10;;;13.90;1.00;;;;;;5088623;28;20128;-82
2024/04/07 05:24:56;;;;;;;0.20;0.20;;;13.90;1.00;;;;;;5086628;28;20392;-82
2024/04/07 05:27:22;;;;;;;0.20;0.20;;;13.90;1.00;;;;;;5086181;28;20044;-81
2024/04/07 05:29:48;;;;;;;0.10;0.10;;;13.90;1.00;;;;;;5070310;28;20119;-83
2024/04/07 05:32:14;;;;;;;0.20;0.20;;;13.90;1.00;;;;;;5070384;28;20044;-81
2024/04/07 05:34:40;;;;;;;0.10;0.10;;;13.90;1.00;;;;;;5075209;28;20407;-81
2024/04/07 05:37:06;;;;;;;0.10;0.10;;;13.90;1.00;;;;;;5069345;28;20475;-82
2024/04/07 05:39:32;;;;;;;0.15;0.15;;;13.90;1.00;;;;;;5068414;28;20087;-85
2024/04/07 05:41:59;;;;;;;0.20;0.20;;;13.90;1.00;;;;;;5068652;28;20056;-83
2024/04/07 05:44:30;;;;;;;0.20;0.20;;;14.00;1.00;;;;;;5069227;28;20053;-81
2024/04/07 05:46:55;;;;;;;0.20;0.20;;;14.00;1.00;;;;;;5068288;28;20414;-81
2024/04/07 05:49:21;;;;;;;0.20;0.20;;;14.00;1.00;;;;;;5079665;28;20101;-80
2024/04/07 05:51:46;;;;;;;0.17;0.17;;;14.00;1.00;;;;;;5090791;28;20035;-81
2024/04/07 05:54:12;;;;;;;0.10;0.10;;;14.00;1.00;;;;;;5089414;28;20499;-82
2024/04/07 05:56:38;;;;;;;0.10;0.10;;;14.00;1.00;;;;;;5090828;28;20070;-82
2024/04/07 05:59:03;;;;;;;0.20;0.20;;;14.00;1.00;;;;;;5090084;28;20051;-82
2024/04/07 06:01:29;;;;;;;0.20;0.20;;;14.10;1.00;;;;;;5088472;28;20036;-84
2024/04/07 06:03:54;;;;;;;0.10;0.10;;;14.10;1.00;;;;;;5074472;28;20484;-83
2024/04/07 06:06:20;;;;;;;0.10;0.10;;;14.10;1.00;;;;;;5088748;28;20044;-83
2024/04/07 06:08:46;;;;;;;0.10;0.10;;;14.10;1.00;;;;;;5088209;28;20044;-81
2024/04/07 06:11:11;;;;;;;0.10;0.10;;;14.10;1.00;;;;;;5085942;28;20113;-82
2024/04/07 06:13:37;;;;;;;0.10;0.10;;;14.10;1.00;;;;;;5068469;28;20488;-82
2024/04/07 06:16:03;;;;;;;0.10;0.10;;;14.20;1.00;;;;;;5069043;28;20048;-82
2024/04/07 06:18:28;;;;;;;0.10;0.10;;;14.20;1.00;;;;;;5072710;28;20048;-82
2024/04/07 06:20:54;;;;;;;0.10;0.10;;;14.30;1.00;;;;;;5088355;28;20092;-82
2024/04/07 06:23:22;;;;;;;0.10;0.10;;;14.30;1.00;;;;;;5087728;28;20244;-82
2024/04/07 06:25:47;;;;;;;0.20;0.20;;;14.20;1.00;;;;;;5122660;27;20396;-83
2024/04/07 06:28:13;;;;;;;0.20;0.20;;;14.30;1.00;;;;;;5088361;28;20040;-80
2024/04/07 06:30:39;;;;;;;0.15;0.15;;;14.20;1.00;;;;;;5089547;28;20377;-81
2024/04/07 06:33:05;;;;;;;0.10;0.10;;;14.20;1.00;;;;;;5079930;28;20170;-85
2024/04/07 06:35:31;;;;;;;0.20;0.20;;;14.30;1.00;;;;;;5067943;28;20056;-83
2024/04/07 06:37:57;;;;;;;0.10;0.10;;;14.20;1.00;;;;;;5069071;28;20055;-81
2024/04/07 06:40:23;;;;;;;0.10;0.10;;;14.20;1.00;;;;;;5068222;28;20091;-82
2024/04/07 06:42:49;;;;;;;0.20;0.20;;;14.20;1.00;;;;;;5067999;28;20519;-82
2024/04/07 06:45:14;;;;;;;0.17;0.17;;;14.20;1.00;;;;;;5068258;28;20055;-82
2024/04/07 06:47:40;;;;;;;0.20;0.20;;;14.20;1.00;;;;;;5068581;28;20078;-82
2024/04/07 06:50:06;;;;;;;0.20;0.20;;;14.20;1.00;;;;;;5067250;28;20047;-81
2024/04/07 06:52:32;;;;;;;0.20;0.20;;;14.30;1.00;;;;;;5081767;28;20044;-81
2024/04/07 06:54:57;;;;;;;0.20;0.20;;;14.30;1.00;;;;;;5087421;28;20056;-82
2024/04/07 06:57:23;;;;;;;0.20;0.20;;;14.50;1.00;;;;;;5087821;28;20039;-83
2024/04/07 06:59:52;;;;;;;0.20;0.20;;;14.70;1.00;;;;;;5088429;28;20492;-83
2024/04/07 07:02:18;;;;;;;0.10;0.10;;;14.80;1.00;;;;;;5071433;28;20127;-83
2024/04/07 07:04:46;;;;;;;0.10;0.10;;;14.80;1.00;;;;;;5067873;28;20430;-82
2024/04/07 07:07:12;;;;;;;0.10;0.10;;;14.80;1.00;;;;;;5066517;28;20404;-81
2024/04/07 07:09:37;;;;;;;0.10;0.10;;;14.90;1.00;;;;;;5067500;28;20039;-82
2024/04/07 07:12:03;;;;;;;0.20;0.20;;;15.00;1.00;;;;;;5070768;28;20047;-82
2024/04/07 07:14:29;;;;;;;0.10;0.10;;;15.00;1.00;;;;;;5089079;28;20036;-83
2024/04/07 07:16:55;;;;;;;0.20;0.20;;;15.10;1.00;;;;;;5082305;28;20221;-81
2024/04/07 07:19:21;;;;;;;0.10;0.10;;;15.10;1.00;;;;;;5066204;28;20395;-82
2024/04/07 07:21:48;;;;;;;0.20;0.20;;;15.10;1.00;;;;;;5067922;28;20055;-81
2024/04/07 07:24:14;;;;;;;0.20;0.20;;;15.20;1.00;;;;;;5082996;28;20052;-82
2024/04/07 07:26:39;;;;;;;0.10;0.10;;;15.30;1.00;;;;;;5085361;28;20036;-84
2024/04/07 07:29:05;;;;;;;0.10;0.10;;;15.30;1.00;;;;;;5087541;28;20147;-82
2024/04/07 07:31:31;;;;;;;0.10;0.10;;;15.30;1.00;;;;;;5084715;28;20029;-82
2024/04/07 07:33:56;;;;;;;0.10;0.10;;;15.40;1.00;;;;;;5066661;28;20076;-81
2024/04/07 07:36:22;;;;;;;0.20;0.20;;;15.50;1.00;;;;;;5067750;28;20080;-82
2024/04/07 07:38:48;;;;;;;0.17;0.17;;;15.50;1.00;;;;;;5065915;28;20455;-81
2024/04/07 07:41:14;;;;;;;0.13;0.13;;;15.50;1.00;;;;;;5069291;28;20101;-80
2024/04/07 07:43:40;;;;;;;0.10;0.10;;;15.50;1.00;;;;;;5114761;27;20391;-81
2024/04/07 07:46:06;;;;;;;0.10;0.10;;;15.70;1.00;;;;;;5077319;28;20084;-81
2024/04/07 07:48:34;;;;;;;0.10;0.10;;;15.70;1.00;;;;;;5065985;28;20047;-82
2024/04/07 07:50:59;;;;;;;0.10;0.10;;;15.80;1.00;;;;;;5084716;28;20056;-81
2024/04/07 07:53:25;;;;;;;0.20;0.20;;;15.80;1.00;;;;;;5088933;28;20542;-82
2024/04/07 07:55:54;;;;;;;0.20;0.20;;;15.80;1.00;;;;;;5091617;28;20404;-81
2024/04/07 07:58:22;;;;;;;0.10;0.10;;;15.90;1.00;;;;;;5092719;28;20048;-83
2024/04/07 08:00:47;;;;;;;0.10;0.10;;;15.90;1.00;;;;;;5079273;28;20051;-81
2024/04/07 08:03:13;;;;;;;0.17;0.17;;;15.90;1.00;;;;;;5072445;28;20049;-82
2024/04/07 08:05:39;;;;;;;0.10;0.10;;;16.00;1.00;;;;;;5071089;28;20043;-82
2024/04/07 08:08:05;;;;;;;0.20;0.20;;;16.00;1.00;;;;;;5088367;28;20056;-82
2024/04/07 08:10:30;;;;;;;0.10;0.10;;;16.10;1.00;;;;;;5092700;28;20063;-83
2024/04/07 08:12:56;;;;;;;0.20;0.20;;;16.10;1.00;;;;;;5087452;28;20028;-82
2024/04/07 08:15:21;;;;;;;0.20;0.20;;;16.20;1.00;;;;;;5078143;28;20501;-85
2024/04/07 08:17:47;;;;;;;0.20;0.20;;;16.20;1.00;;;;;;5089201;28;20047;-84
2024/04/07 08:20:13;;;;;;;0.10;0.10;;;16.20;1.00;;;;;;5090331;28;20487;-83
2024/04/07 08:22:39;;;;;;;0.20;0.20;;;16.30;1.00;;;;;;5084095;28;20059;-85
2024/04/07 08:25:05;;;;;;;0.20;0.20;;;16.30;1.00;;;;;;5068388;28;20056;-84
2024/04/07 08:27:32;;;;;;;0.20;0.20;;;16.40;1.00;;;;;;5090934;28;20052;-84
2024/04/07 08:29:58;;;;;;;0.10;0.10;;;16.40;1.00;;;;;;5069648;28;20502;-85
2024/04/07 08:32:24;;;;;;;0.10;0.10;;;16.50;1.00;;;;;;5074771;28;20048;-84
2024/04/07 08:34:49;;;;;;;0.10;0.10;;;16.60;1.00;;;;;;5088855;28;20048;-86
2024/04/07 08:37:15;;;;;;;0.20;0.20;;;16.60;1.00;;;;;;5090969;28;20091;-82
2024/04/07 08:39:40;;;;;;;0.10;0.10;;;16.60;1.00;;;;;;5089257;28;20127;-86
2024/04/07 08:42:09;;;;;;;0.17;0.17;;;16.60;1.00;;;;;;5122143;27;20051;-84
2024/04/07 08:44:37;;;;;;;0.20;0.20;;;16.70;1.00;;;;;;5084825;28;20048;-85
2024/04/07 08:47:05;;;;;;;0.20;0.20;;;16.70;1.00;;;;;;5092316;28;20438;-85
2024/04/07 08:49:33;;;;;;;0.10;0.10;;;16.80;1.00;;;;;;5117760;27;20090;-84
2024/04/07 08:51:59;;;;;;;0.10;0.10;;;16.80;1.00;;;;;;5079535;28;20048;-84
2024/04/07 08:54:25;;;;;;;0.20;0.20;;;16.80;1.00;;;;;;5086306;28;20055;-83
2024/04/07 08:56:53;;;;;;;0.10;0.10;;;16.80;1.00;;;;;;5085833;28;20048;-83
2024/04/07 08:59:20;;;;;;;0.20;0.20;;;16.80;1.00;;;;;;5082760;28;20041;-84
2024/04/07 09:01:46;;;;;;;0.20;0.20;;;16.80;1.00;;;;;;5082360;28;20044;-84
2024/04/07 09:04:12;;;;;;;0.10;0.10;;;16.70;1.00;;;;;;5084327;28;20495;-83
2024/04/07 09:06:39;;;;;;;0.10;0.10;;;16.80;1.00;;;;;;5078241;28;20040;-84
2024/04/07 09:09:05;;;;;;;0.10;0.10;;;16.90;1.00;;;;;;5072363;28;20052;-83
2024/04/07 09:11:37;;;;;;;0.10;0.10;;;17.00;1.00;;;;;;5085152;28;20479;-82
2024/04/07 09:14:05;;;;;;;0.15;0.15;;;17.10;1.00;;;;;;5092633;28;20085;-82
2024/04/07 09:16:30;;;;;;;0.13;0.13;;;17.20;1.00;;;;;;5077289;28;20040;-81
2024/04/07 09:18:56;;;;;;;0.20;0.20;;;17.30;1.00;;;;;;5072985;28;20044;-82
2024/04/07 09:21:22;;;;;;;0.17;0.17;;;17.40;1.00;;;;;;5070518;28;20045;-82
2024/04/07 09:23:50;;;;;;;0.10;0.10;;;17.50;1.00;;;;;;5078430;28;20093;-83
2024/04/07 09:26:17;;;;;;;0.20;0.20;;;17.60;1.00;;;;;;5084064;28;20051;-84
2024/04/07 09:28:43;;;;;;;0.10;0.10;;;17.70;1.00;;;;;;5089214;28;20510;-84
2024/04/07 09:31:08;;;;;;;0.20;0.20;;;17.80;1.00;;;;;;5092916;28;20052;-80
2024/04/07 09:33:37;;;;;;;0.10;0.10;;;17.90;1.00;;;;;;5086393;28;20038;-82
2024/04/07 09:36:03;;;;;;;0.10;0.10;;;17.90;1.00;;;;;;5090765;28;20430;-82
2024/04/07 09:38:29;;;;;;;0.20;0.20;;;17.90;1.00;;;;;;5087505;28;20335;-84
2024/04/07 09:40:57;;;;;;;0.10;0.10;;;17.90;1.00;;;;;;5085778;28;20056;-83
2024/04/07 09:43:24;;;;;;;0.20;0.20;;;17.90;1.00;;;;;;5104849;27;20106;-84
2024/04/07 09:45:52;;;;;;;0.10;0.10;;;17.80;1.00;;;;;;5067983;28;20047;-83
2024/04/07 09:48:23;;;;;;;0.10;0.10;;;17.80;1.00;;;;;;5071429;28;20139;-83
2024/04/07 09:51:03;;;;;;;0.20;0.20;;;17.80;1.00;;;;;;5088911;28;20048;-81
2024/04/07 09:53:47;;;;;;;0.20;0.20;;;17.80;1.00;;;;;;5088052;28;20395;-81
2024/04/07 09:56:15;;;;;;;0.20;0.20;;;17.90;1.00;;;;;;5090725;28;20052;-81
2024/04/07 09:58:41;;;;;;;0.20;0.20;;;17.90;1.00;;;;;;5089031;28;20044;-81
2024/04/07 10:01:10;;;;;;;0.10;0.10;;;18.00;1.00;;;;;;5086324;28;20048;-83
2024/04/07 10:03:37;;;;;;;0.10;0.10;;;18.10;1.00;;;;;;5101705;28;20051;-81
2024/04/07 10:06:03;;;;;;;0.13;0.13;;;18.10;1.00;;;;;;5085836;28;20252;-81
2024/04/07 10:08:31;;;;;;;0.10;0.10;;;18.20;1.00;;;;;;5081713;28;20422;-80
2024/04/07 10:10:56;;;;;;;0.20;0.20;;;18.30;1.00;;;;;;5085217;28;20048;-81
2024/04/07 10:13:23;;;;;;;0.10;0.10;;;18.40;1.00;;;;;;5087995;28;20050;-82
2024/04/07 10:15:54;;;;;;;0.20;0.20;;;18.50;1.00;;;;;;5086651;28;20483;-81
2024/04/07 10:18:20;;;;;;;0.20;0.20;;;18.50;1.00;;;;;;5067725;28;20549;-81
2024/04/07 10:20:55;;;;;;;0.10;0.10;;;18.60;1.00;;;;;;5067375;28;20052;-82
2024/04/07 10:23:26;;;;;;;0.20;0.20;;;18.60;1.00;;;;;;5076732;28;20060;-82
2024/04/07 10:25:59;;;;;;;0.20;0.20;;;18.70;1.00;;;;;;5088426;28;20036;-81
2024/04/07 10:28:25;;;;;;;0.20;0.20;;;18.80;1.00;;;;;;5089765;28;20134;-81
2024/04/07 10:30:58;;;;;;;0.20;0.20;;;18.80;1.00;;;;;;5084733;28;20036;-81
2024/04/07 10:33:30;;;;;;;0.20;0.20;;;18.90;1.00;;;;;;5076732;28;20043;-82
2024/04/07 10:35:57;;;;;;;0.20;0.20;;;19.00;1.00;;;;;;5087646;28;20048;-81
2024/04/07 10:38:23;;;;;;;0.10;0.10;;;19.00;1.00;;;;;;5086830;28;20347;-81
2024/04/07 10:40:52;;;;;;;0.38;0.38;;;19.10;1.00;;;;;;5089307;28;20052;-82
2024/04/07 10:43:18;;;;;;;0.20;0.20;;;19.00;1.00;;;;;;5098269;28;20596;-81
2024/04/07 10:45:45;;;;;;;0.20;0.20;;;19.00;1.00;;;;;;5084225;28;20141;-83
2024/04/07 10:48:11;;;;;;;0.10;0.10;;;19.10;1.00;;;;;;5067991;28;20040;-80
2024/04/07 10:50:36;;;;;;;0.20;0.20;;;19.20;1.00;;;;;;5067022;28;20044;-80
2024/04/07 10:53:06;;;;;;;0.20;0.20;;;19.20;1.00;;;;;;5067752;28;20053;-81
2024/04/07 10:55:33;;;;;;;0.10;0.10;;;19.30;1.00;;;;;;5068644;28;20044;-80
2024/04/07 10:57:59;;;;;;;0.20;0.20;;;19.40;1.00;;;;;;5101190;28;20040;-81
2024/04/07 11:00:24;;;;;;;0.13;0.13;;;19.60;1.00;;;;;;5067842;28;20098;-84
2024/04/07 11:02:50;;;;;;;0.20;0.20;;;19.70;1.00;;;;;;5067243;28;20059;-82
2024/04/07 11:05:16;;;;;;;0.20;0.20;;;19.80;1.00;;;;;;5066863;28;20072;-83
2024/04/07 11:07:42;;;;;;;0.20;0.20;;;20.00;1.00;;;;;;5067065;28;20087;-84
2024/04/07 11:10:09;;;;;;;0.20;0.20;;;20.00;1.00;;;;;;5116004;28;20470;-82
2024/04/07 11:12:35;;;;;;;0.20;0.20;;;20.10;1.00;;;;;;5072140;28;20087;-82
2024/04/07 11:15:13;;;;;;;0.20;0.20;;;20.30;1.00;;;;;;5067347;28;20048;-81
2024/04/07 11:17:39;;;;;;;0.20;0.20;;;20.30;1.00;;;;;;5087269;28;20408;-81
2024/04/07 11:20:04;;;;;;;0.20;0.20;;;20.40;1.00;;;;;;5087559;28;20322;-81
2024/04/07 11:22:30;;;;;;;0.20;0.20;;;20.50;1.00;;;;;;5088204;28;20134;-85
2024/04/07 11:24:56;;;;;;;0.20;0.20;;;20.60;1.00;;;;;;5087475;28;20051;-83
2024/04/07 11:27:22;;;;;;;0.20;0.20;;;20.60;1.00;;;;;;5089171;28;20511;-82
2024/04/07 11:29:49;;;;;;;0.20;0.20;;;20.50;1.00;;;;;;5087422;28;20476;-83
2024/04/07 11:32:14;;;;;;;0.20;0.20;;;20.50;1.00;;;;;;5105449;28;20110;-82
2024/04/07 11:34:42;;;;;;;0.20;0.20;;;20.50;1.00;;;;;;5070215;28;20572;-81
2024/04/07 11:37:08;;;;;;;0.20;0.20;;;20.50;1.00;;;;;;5105836;28;20056;-83
2024/04/07 11:39:34;;;;;;;0.20;0.20;;;20.60;1.00;;;;;;5103892;27;20146;-81
2024/04/07 11:42:05;;;;;;;0.20;0.20;;;20.70;1.00;;;;;;5071308;28;20114;-85
2024/04/07 11:44:31;;;;;;;0.15;0.15;;;20.80;1.00;;;;;;5088789;27;20052;-82
2024/04/07 11:46:58;;;;;;;0.25;0.25;;;20.80;1.00;;;;;;5089926;28;20395;-83
2024/04/07 11:49:23;;;;;;;0.20;0.20;;;20.90;1.00;;;;;;5091832;28;20301;-84
2024/04/07 11:51:49;;;;;;;0.20;0.20;;;20.90;1.00;;;;;;5090391;28;20048;-83
2024/04/07 11:54:15;;;;;;;0.20;0.20;;;21.00;1.00;;;;;;5091039;28;20130;-84
2024/04/07 11:56:40;;;;;;;0.20;0.20;;;21.10;1.00;;;;;;5091692;28;20048;-85
2024/04/07 11:59:06;;;;;;;0.20;0.20;;;21.10;1.00;;;;;;5082875;28;20048;-82
2024/04/07 12:01:33;;;;;;;0.15;0.15;;;21.20;1.00;;;;;;5073062;28;20041;-82
2024/04/07 12:03:59;;;;;;;0.20;0.20;;;21.30;1.00;;;;;;5069021;28;20052;-82
2024/04/07 12:06:25;;;;;;;0.20;0.20;;;21.30;1.00;;;;;;5104488;28;20051;-82
2024/04/07 12:08:51;;;;;;;0.20;0.20;;;21.40;1.00;;;;;;5102381;27;20044;-83
2024/04/07 12:11:16;;;;;;;0.10;0.10;;;21.50;1.00;;;;;;5079063;28;20016;-84
2024/04/07 12:13:43;;;;;;;0.20;0.20;;;21.70;1.00;;;;;;5073303;28;20094;-81
2024/04/07 12:16:08;;;;;;;0.20;0.20;;;21.80;1.00;;;;;;5088956;28;20036;-81
2024/04/07 12:18:34;;;;;;;0.20;0.20;;;22.00;1.00;;;;;;5089683;28;20063;-81
2024/04/07 12:21:00;;;;;;;0.20;0.20;;;22.00;1.00;;;;;;5090490;28;20044;-82
2024/04/07 12:23:25;;;;;;;0.20;0.20;;;22.00;1.00;;;;;;5090247;28;20040;-83
2024/04/07 12:25:51;;;;;;;0.20;0.20;;;21.80;1.00;;;;;;5092025;28;20043;-81
2024/04/07 12:28:17;;;;;;;0.20;0.20;;;21.70;1.00;;;;;;5085916;28;20044;-82
2024/04/07 12:30:44;;;;;;;0.10;0.10;;;21.70;1.00;;;;;;5070606;28;20051;-84
2024/04/07 12:33:10;;;;;;;0.20;0.20;;;21.80;1.00;;;;;;5070536;28;20392;-83
2024/04/07 12:35:35;;;;;;;0.20;0.20;;;21.90;1.00;;;;;;5069167;28;20040;-83
2024/04/07 12:38:01;;;;;;;0.20;0.20;;;22.10;1.00;;;;;;5069202;28;20369;-83
2024/04/07 12:40:27;;;;;;;0.20;0.20;;;22.20;1.00;;;;;;5069374;28;20485;-82
2024/04/07 12:42:53;;;;;;;0.20;0.20;;;22.10;1.00;;;;;;5069903;28;20159;-85
2024/04/07 12:45:18;;;;;;;0.20;0.20;;;22.00;1.00;;;;;;5079702;28;20487;-83
2024/04/07 12:47:44;;;;;;;0.20;0.20;;;22.00;1.00;;;;;;5090722;28;20040;-81
2024/04/07 12:50:09;;;;;;;0.20;0.20;;;22.10;1.00;;;;;;5088074;28;20048;-82
2024/04/07 12:52:37;;;;;;;0.20;0.20;;;22.20;1.00;;;;;;5100068;28;20555;-82
2024/04/07 12:55:03;;;;;;;0.10;0.10;;;22.30;1.00;;;;;;5089657;28;20101;-82
2024/04/07 12:57:30;;;;;;;0.20;0.20;;;22.40;1.00;;;;;;5088700;28;20052;-82